Terminal Aerodrome Forecast
Issued by NWS Albany, NY

Home | Current Version | Previous Version | Text Only | Print | Product List | Glossary On
Versions: 1 2 3 4 5 6 7 8 9 10 11 12 13 14 15 16 17
000
FTUS41 KALY 280539
TAFPOU
TAF
KPOU 280539Z 2806/2906 00000KT P6SM SKC
     FM280900 00000KT 4SM BR FEW005
     FM281200 VRB03KT P6SM SCT050
     FM290100 00000KT P6SM SKC=

USA.gov is the U.S. government's official web portal to all federal, state and local government web resources and services.